EDDR

Saarbrücken Airport

Saarbrücken, Germany
METAR EDDR 220350Z 17004KT 130V210 0350 R27/0750N FZFG VV/// M06/M07 Q1014
Observed Flight Rules
Jan-22 @ 03:50 UTC (22 minutes ago) Instrument Flight Rules
Wind Visibility Clouds Conditions
170° at 4 knots 354 meters
  • Vertical visibility
  • Freezing
  • Fog
Temperatures Readings
Current -6°C / 21°F
Dewpoint -7°C / 19°F
Humidity 93%
Altimeter 29.94" Hg
Pressure 1013.92 hPa
Elevation 320
METAR EDDR 220350Z 17004KT 130V210 0350 R27/0750N FZFG VV/// M06/M07 Q1014
Observed Flight Rules
Jan-22 @ 03:50 UTC
(22 minutes ago)
LIFR
Wind Visibility
170° at 4 knots 354 meters
Clouds
  • Vertical visibility
Conditions
  • Freezing
  • Fog
Temperature Dewpoint
-6°C / 21°F -7°C / 19°F
Humidity Altimeter Pressure
93% 29.94" Hg 1013.92 hPa